Harold B Dodd — WDI4802 — position and weather

sailwx.info

Track history (hours):
 
Tides and Currents Weather Stations Pressure Air Temp Water Temp Dewpoint Dewpoint Depression Visibility Wind Speed Wind Dir Waves Ship Positions

Harold B Dodd

Owner: ACBL River Operations LLC, Jeffersonville, IN. More information available from US FCC via Universal Licensing System and Coast Guard Vessel Documentation Center.

Last reported at 2017-Sep-22 02:00 UTC. Time now 2017-Sep-24 03:14 UTC.
Position N 32°35' W 091°07'.

Length 57 m; draft 3.6 m.

Type: Towing. MMSI: 367702150.

Date/timePositionNaut miles runAvg speedWind from/ knotsBaromVisibWave heightAir tempDewpointWater temp
2017-Sep-22 02:00N 32°35' W 091°07'2 4.0
2017-Sep-22 01:30N 32°33' W 091°06'2 4.0
2017-Sep-22 01:00N 32°31' W 091°06'2 5.0
2017-Sep-22 00:30N 32°29' W 091°07'2 4.8
2017-Sep-22 00:00N 32°27' W 091°05'2 4.6
2017-Sep-21 23:30N 32°26' W 091°03'2 4.4
2017-Sep-21 23:00N 32°25' W 091°00'2 3.2
2017-Sep-21 22:30N 32°24' W 090°59'2 4.5
2017-Sep-21 22:00N 32°22' W 091°00'2 4.7
2017-Sep-21 21:30N 32°21' W 090°58'2 4.1
2017-Sep-21 21:00N 32°21' W 090°55'2 3.9
2017-Sep-21 20:30N 32°19' W 090°54'1 2.6
2017-Sep-21 20:00N 32°18' W 090°55'0 0.0
2017-Sep-21 19:30N 32°18' W 090°55'0 0.0
2017-Sep-21 19:00N 32°18' W 090°55'0 0.5
2017-Sep-21 18:30N 32°18' W 090°55'2 4.0
2017-Sep-21 18:00N 32°17' W 090°57'2 4.0
2017-Sep-21 17:30N 32°15' W 090°59'2 4.1
2017-Sep-21 17:00N 32°13' W 090°59'2 4.3
2017-Sep-21 16:30N 32°11' W 090°60'2 4.2
2017-Sep-21 16:00N 32°09' W 091°00'2 4.2
2017-Sep-21 15:30N 32°07' W 091°02'3 4.4
2017-Sep-21 14:51N 32°08' W 091°05'1 4.2
2017-Sep-21 14:30N 32°08' W 091°06'2 4.1
2017-Sep-21 14:00N 32°06' W 091°05'1 1.4
2017-Sep-21 13:17N 32°05' W 091°04'0 0.4
2017-Sep-21 13:00N 32°05' W 091°04'2 2.6
2017-Sep-21 12:15N 32°03' W 091°03'1 4.7
2017-Sep-21 12:00N 32°02' W 091°04'7 2.9
2017-Sep-21 09:33N 31°58' W 091°11'0 4.6
2017-Sep-21 09:30N 31°58' W 091°11'  
2017-Sep-17 10:26N 31°60' W 091°05'3 7.1
2017-Sep-17 09:59N 32°03' W 091°03'3 6.4
2017-Sep-17 09:30N 32°05' W 091°05'3 5.2
2017-Sep-17 09:00N 32°08' W 091°06'3 6.8
2017-Sep-17 08:30N 32°07' W 091°02'3 6.3
2017-Sep-17 08:00N 32°10' W 091°00'3 7.0
2017-Sep-17 07:30N 32°13' W 090°59'3 7.0
2017-Sep-17 07:00N 32°16' W 090°57'4 7.2
2017-Sep-17 06:30N 32°19' W 090°54'3 5.1
2017-Sep-17 06:00N 32°21' W 090°56'3 6.8
2017-Sep-17 05:30N 32°22' W 091°00'3 6.8
2017-Sep-17 05:00N 32°25' W 090°60'3 6.9
2017-Sep-17 04:30N 32°26' W 091°04'3 6.7
2017-Sep-17 04:00N 32°28' W 091°07'3 6.1
2017-Sep-17 03:30N 32°31' W 091°06'3 6.4
2017-Sep-17 03:00N 32°35' W 091°07'4 7.3
2017-Sep-17 02:30N 32°38' W 091°09'  
Track history (hours):
 
Tides and Currents Weather Stations Pressure Air Temp Water Temp Dewpoint Dewpoint Depression Visibility Wind Speed Wind Dir Waves Ship Positions

Harold B Dodd

Owner: ACBL River Operations LLC, Jeffersonville, IN. More information available from US FCC via Universal Licensing System and Coast Guard Vessel Documentation Center.

Last reported at 2017-Sep-22 02:00 UTC. Time now 2017-Sep-24 03:14 UTC.
Position N 32°35' W 091°07'.

Length 57 m; draft 3.6 m.

Type: Towing. MMSI: 367702150.

Date/timePositionNaut miles runAvg speedWind from/ knotsBaromVisibWave heightAir tempDewpointWater temp
2017-Sep-22 02:00N 32°35' W 091°07'2 4.0
2017-Sep-22 01:30N 32°33' W 091°06'2 4.0
2017-Sep-22 01:00N 32°31' W 091°06'2 5.0
2017-Sep-22 00:30N 32°29' W 091°07'2 4.8
2017-Sep-22 00:00N 32°27' W 091°05'2 4.6
2017-Sep-21 23:30N 32°26' W 091°03'2 4.4
2017-Sep-21 23:00N 32°25' W 091°00'2 3.2
2017-Sep-21 22:30N 32°24' W 090°59'2 4.5
2017-Sep-21 22:00N 32°22' W 091°00'2 4.7
2017-Sep-21 21:30N 32°21' W 090°58'2 4.1
2017-Sep-21 21:00N 32°21' W 090°55'2 3.9
2017-Sep-21 20:30N 32°19' W 090°54'1 2.6
2017-Sep-21 20:00N 32°18' W 090°55'0 0.0
2017-Sep-21 19:30N 32°18' W 090°55'0 0.0
2017-Sep-21 19:00N 32°18' W 090°55'0 0.5
2017-Sep-21 18:30N 32°18' W 090°55'2 4.0
2017-Sep-21 18:00N 32°17' W 090°57'2 4.0
2017-Sep-21 17:30N 32°15' W 090°59'2 4.1
2017-Sep-21 17:00N 32°13' W 090°59'2 4.3
2017-Sep-21 16:30N 32°11' W 090°60'2 4.2
2017-Sep-21 16:00N 32°09' W 091°00'2 4.2
2017-Sep-21 15:30N 32°07' W 091°02'3 4.4
2017-Sep-21 14:51N 32°08' W 091°05'1 4.2
2017-Sep-21 14:30N 32°08' W 091°06'2 4.1
2017-Sep-21 14:00N 32°06' W 091°05'1 1.4
2017-Sep-21 13:17N 32°05' W 091°04'0 0.4
2017-Sep-21 13:00N 32°05' W 091°04'2 2.6
2017-Sep-21 12:15N 32°03' W 091°03'1 4.7
2017-Sep-21 12:00N 32°02' W 091°04'7 2.9
2017-Sep-21 09:33N 31°58' W 091°11'0 4.6
2017-Sep-21 09:30N 31°58' W 091°11'  
2017-Sep-17 10:26N 31°60' W 091°05'3 7.1
2017-Sep-17 09:59N 32°03' W 091°03'3 6.4
2017-Sep-17 09:30N 32°05' W 091°05'3 5.2
2017-Sep-17 09:00N 32°08' W 091°06'3 6.8
2017-Sep-17 08:30N 32°07' W 091°02'3 6.3
2017-Sep-17 08:00N 32°10' W 091°00'3 7.0
2017-Sep-17 07:30N 32°13' W 090°59'3 7.0
2017-Sep-17 07:00N 32°16' W 090°57'4 7.2
2017-Sep-17 06:30N 32°19' W 090°54'3 5.1
2017-Sep-17 06:00N 32°21' W 090°56'3 6.8
2017-Sep-17 05:30N 32°22' W 091°00'3 6.8
2017-Sep-17 05:00N 32°25' W 090°60'3 6.9
2017-Sep-17 04:30N 32°26' W 091°04'3 6.7
2017-Sep-17 04:00N 32°28' W 091°07'3 6.1
2017-Sep-17 03:30N 32°31' W 091°06'3 6.4
2017-Sep-17 03:00N 32°35' W 091°07'4 7.3
2017-Sep-17 02:30N 32°38' W 091°09'  

Dump ship's entire track history